Airfield :
LOGIN :

Register | Disclaimer

   EN    FR    IT 

 










Legend :    VFR   Marginal VFR   IFR   Intensive IFR   Very Intensive IFR
Visi :
Ceiling :
>= 8 km
>= 3000ft
5 to 8 km
1000 to 3000 ft
1500m to 5 km
500 to 1000 ft
800 to 1500m
200 to 500 ft
< 800m
< 200 ft
Symbols :   Thunderstorms  Fog  Heavy snow  Heavy precipitations  Wind > 20 kt
SIGMETs :     Misc.  Thunderstorms  Icing  Turbulence  Mountain Waves  Volcanic Ashes







- Airport Elevation : 42 ft
- IATA code : LMO


EGQS - Lossiemouth

CURRENT METAR :
  • 191950Z 23026G36KT 9999 FEW030CB 09/05 Q0992 BLU

EXPIRED METARs :
  • 191850Z 23025KT 9999 -SHRA FEW028CB 10/05 Q0991 BLU
  • 191750Z 24024G34KT 9999 FEW028CB 11/05 Q0990 BLU

TAF TAF EGQS
Valid from the 19 at 21:00 until the 20 at 15:00 UTC


191936Z 1921/2015 23018G30KT 9999 SCT030
PROB30
TEMPO 1921/2012 25028G42KT
PROB30
TEMPO 1921/2006 4000 SHRA BKN024CB
BECMG 2012/2015 20012KT
No reported NOTAMs for that airfield.
2 SIGMETs reported for the Scottish FIR (EGPX) :
 
Severe mountain waves
EGPX SIGMET 12 VALID 191700/192100 EGRR
EGPX SCOTTISH FIR SEV MTW FCST WI N5500 W00100 - N5500 W00530 - N5355 W00530 - N5442 W00919 - N5828 W00436 - N5848 W00050 - N5500 E00020 - N5500 W00100 FL030/250 STNR NC=
Severe turbulence
EGPX SIGMET 11 VALID 191700/192100 EGRR
EGPX SCOTTISH FIR SEV TURB FCST SE OF LINE N5851 W01000 - N6100 W00026 SFC/FL060 MOV N 10KT WKN=



MET'MAP, your aeronautical weather chart ! - Copyright ORBIFLY December 2007 - Disclaimer

ORBIFLY MET'MAP TEAM :

Programming & Development : Alexandra Zaïnal
Concept & Development : Baudouin d'Aumeries
Co-Development & Prog : Marc-Olivier Méhu
Technical & hardware support : Manuel Goepfert

Contact : metmap@orbifly.com




SOURCES & CREDITS :

   NOAA